createdAt,value
2023-02-01T00:28:43.881Z,1011.36
2023-02-01T00:29:24.334Z,1011.28
2023-02-01T00:30:04.722Z,1011.39
2023-02-01T00:30:45.305Z,1011.34
2023-02-01T00:31:28.318Z,1011.33
2023-02-01T00:32:06.240Z,1011.35
2023-02-01T00:32:46.678Z,1011.35
2023-02-01T00:33:27.138Z,1011.28
2023-02-01T00:34:07.624Z,1011.34
2023-02-01T00:34:48.150Z,1011.37
2023-02-01T00:35:28.593Z,1011.37
2023-02-01T00:36:09.064Z,1011.35
2023-02-01T00:36:49.580Z,1011.35
2023-02-01T00:37:30.092Z,1011.36
2023-02-01T00:38:10.525Z,1011.34
2023-02-01T00:38:51.024Z,1011.28
2023-02-01T00:39:31.512Z,1011.23
2023-02-01T00:40:12.032Z,1011.23
2023-02-01T00:40:52.489Z,1011.25
2023-02-01T00:41:32.972Z,1011.27
2023-02-01T00:42:13.511Z,1011.16
2023-02-01T00:42:53.995Z,1011.29
2023-02-01T00:43:34.466Z,1011.33
2023-02-01T00:44:15.035Z,1011.35
2023-02-01T00:44:55.492Z,1011.31
2023-02-01T00:45:35.931Z,1011.31
2023-02-01T00:46:16.496Z,1011.36
2023-02-01T00:46:56.993Z,1011.35
2023-02-01T00:48:17.938Z,1011.26
2023-02-01T00:48:58.429Z,1011.34
2023-02-01T00:49:38.896Z,1011.3
2023-02-01T00:50:19.628Z,1011.29
2023-02-01T00:50:59.946Z,1011.33
2023-02-01T00:51:40.386Z,1011.3
2023-02-01T00:52:20.874Z,1011.27
2023-02-01T00:53:01.346Z,1011.25
2023-02-01T00:53:41.863Z,1011.33
2023-02-01T00:54:22.311Z,1011.34
2023-02-01T00:55:43.312Z,1011.3
2023-02-01T00:56:23.826Z,1011.29
2023-02-01T00:57:04.330Z,1011.35
2023-02-01T00:57:44.835Z,1011.36
2023-02-01T00:58:25.307Z,1011.38
2023-02-01T00:59:05.769Z,1011.34
2023-02-01T00:59:46.273Z,1011.34
2023-02-01T01:00:26.785Z,1011.37
2023-02-01T01:01:07.383Z,1011.33
2023-02-01T01:01:47.856Z,1011.34
2023-02-01T01:02:28.304Z,1011.25
2023-02-01T01:03:08.789Z,1011.38
2023-02-01T01:03:49.276Z,1011.36
2023-02-01T01:04:29.756Z,1011.33
2023-02-01T01:05:10.249Z,1011.31
2023-02-01T01:05:50.701Z,1011.21
2023-02-01T01:06:31.231Z,1011.08
2023-02-01T01:07:11.665Z,1011.05
2023-02-01T01:07:52.180Z,1011.06
2023-02-01T01:08:32.702Z,1011.03
2023-02-01T01:09:13.222Z,1011.01
2023-02-01T01:09:53.727Z,1010.98
2023-02-01T01:10:34.211Z,1010.9
2023-02-01T01:11:14.697Z,1010.9
2023-02-01T01:11:55.195Z,1010.79
2023-02-01T01:13:16.171Z,1010.85
2023-02-01T01:13:56.660Z,1010.79
2023-02-01T01:14:37.134Z,1010.71
2023-02-01T01:15:17.662Z,1010.78
2023-02-01T01:15:58.164Z,1010.78
2023-02-01T01:16:38.580Z,1010.75
2023-02-01T01:17:19.057Z,1010.74
2023-02-01T01:17:59.606Z,1010.73
2023-02-01T01:18:40.058Z,1010.74
2023-02-01T01:19:20.564Z,1010.74
2023-02-01T01:20:01.081Z,1010.8
2023-02-01T01:20:41.546Z,1010.81
2023-02-01T01:21:22.012Z,1010.83
2023-02-01T01:22:02.541Z,1010.88
2023-02-01T01:23:23.555Z,1010.87
2023-02-01T01:24:04.068Z,1010.88
2023-02-01T01:24:44.571Z,1010.93
2023-02-01T01:25:25.055Z,1010.9
2023-02-01T01:26:07.728Z,1010.85
2023-02-01T01:26:46.083Z,1010.86
2023-02-01T01:27:26.561Z,1010.87
2023-02-01T01:28:07.098Z,1010.9
2023-02-01T01:28:47.580Z,1010.92
2023-02-01T01:29:28.126Z,1010.97
2023-02-01T01:30:08.612Z,1011
2023-02-01T01:30:49.165Z,1010.93
2023-02-01T01:31:29.733Z,1011
2023-02-01T01:32:10.125Z,1010.99
2023-02-01T01:32:50.587Z,1011.01
2023-02-01T01:33:31.111Z,1011.07
2023-02-01T01:34:11.621Z,1011.08
2023-02-01T01:34:52.155Z,1011.09
2023-02-01T01:35:32.709Z,1011.12
2023-02-01T01:36:13.202Z,1011.13
2023-02-01T01:36:53.709Z,1011.21
2023-02-01T01:37:34.199Z,1011.24
2023-02-01T01:38:14.693Z,1011.23
2023-02-01T01:38:55.173Z,1011.23
2023-02-01T01:39:35.649Z,1011.23
2023-02-01T01:40:56.660Z,1011.23
2023-02-01T01:41:37.143Z,1011.33
2023-02-01T01:42:17.632Z,1011.25
2023-02-01T01:42:58.133Z,1011.32
2023-02-01T01:43:38.671Z,1011.28
2023-02-01T01:44:19.137Z,1011.26
2023-02-01T01:44:59.639Z,1011.26
2023-02-01T01:45:40.130Z,1011.24
2023-02-01T01:46:20.653Z,1011.25
2023-02-01T01:47:01.148Z,1011.25
2023-02-01T01:47:41.623Z,1011.18
2023-02-01T01:48:22.108Z,1011.24
2023-02-01T01:49:02.598Z,1011.22
2023-02-01T01:49:43.100Z,1011.18
2023-02-01T01:50:24.409Z,1011.21
2023-02-01T01:51:04.105Z,1011.19
2023-02-01T01:51:44.619Z,1011.16
2023-02-01T01:52:25.118Z,1011.19
2023-02-01T01:53:05.616Z,1011.16
2023-02-01T01:53:46.103Z,1011.18
2023-02-01T01:54:26.605Z,1011.15
2023-02-01T01:55:07.657Z,1011.11
2023-02-01T01:56:28.737Z,1011.03
2023-02-01T01:57:09.245Z,1011.07
2023-02-01T01:57:50.502Z,1011.06
2023-02-01T01:58:31.018Z,1011.06
2023-02-01T01:59:11.530Z,1011.08
2023-02-01T01:59:52.054Z,1011.09
2023-02-01T02:00:32.589Z,1011.1
2023-02-01T02:01:13.100Z,1011.06
2023-02-01T02:01:53.625Z,1010.92
2023-02-01T02:02:34.039Z,1010.97
2023-02-01T02:03:14.529Z,1010.92
2023-02-01T02:03:55.059Z,1010.91
2023-02-01T02:04:35.584Z,1010.94
2023-02-01T02:05:16.099Z,1010.95
2023-02-01T02:05:56.570Z,1010.96
2023-02-01T02:06:37.047Z,1011.02
2023-02-01T02:07:17.549Z,1010.99
2023-02-01T02:07:58.043Z,1011.03
2023-02-01T02:08:38.503Z,1011.02
2023-02-01T02:09:18.994Z,1011.06
2023-02-01T02:10:01.108Z,1011.01
2023-02-01T02:10:40.000Z,1011.01
2023-02-01T02:11:20.500Z,1010.98
2023-02-01T02:12:00.972Z,1011
2023-02-01T02:12:41.450Z,1011
2023-02-01T02:13:21.926Z,1010.94
2023-02-01T02:14:02.445Z,1010.89
2023-02-01T02:14:42.893Z,1010.94
2023-02-01T02:15:23.434Z,1010.92
2023-02-01T02:16:04.046Z,1010.87
2023-02-01T02:16:44.504Z,1010.86
2023-02-01T02:17:24.947Z,1010.82
2023-02-01T02:18:05.439Z,1010.83
2023-02-01T02:18:45.983Z,1010.85
2023-02-01T02:19:26.452Z,1010.84
2023-02-01T02:20:06.939Z,1010.83
2023-02-01T02:20:47.487Z,1010.87
2023-02-01T02:21:28.022Z,1010.9
2023-02-01T02:22:08.445Z,1010.83
2023-02-01T02:22:48.981Z,1010.86
2023-02-01T02:23:29.514Z,1010.85
2023-02-01T02:24:10.034Z,1010.83
2023-02-01T02:27:44.096Z,1010.83
2023-02-01T02:28:24.530Z,1010.86
2023-02-01T02:29:05.085Z,1010.85
2023-02-01T02:29:45.533Z,1010.81
2023-02-01T02:31:06.583Z,1010.78
2023-02-01T02:31:47.113Z,1010.82
2023-02-01T02:32:27.559Z,1010.77
2023-02-01T02:33:08.034Z,1010.79
2023-02-01T02:33:48.540Z,1010.77
2023-02-01T02:34:29.089Z,1010.84
2023-02-01T02:35:09.552Z,1010.76
2023-02-01T02:35:50.097Z,1010.78
2023-02-01T02:36:30.584Z,1010.78
2023-02-01T02:37:11.118Z,1010.81
2023-02-01T02:37:51.610Z,1010.84
2023-02-01T02:38:32.135Z,1010.85
2023-02-01T02:39:12.629Z,1010.81
2023-02-01T02:39:53.081Z,1010.79
2023-02-01T02:40:33.584Z,1010.83
2023-02-01T02:41:14.075Z,1010.77
2023-02-01T02:41:54.581Z,1010.81
2023-02-01T02:42:35.054Z,1010.82
2023-02-01T02:43:15.545Z,1010.76
2023-02-01T02:43:56.075Z,1010.77
2023-02-01T02:45:17.033Z,1010.73
2023-02-01T02:45:57.537Z,1010.71
2023-02-01T02:46:37.970Z,1010.62
2023-02-01T02:47:18.468Z,1010.69
2023-02-01T02:47:58.997Z,1010.66
2023-02-01T02:48:39.483Z,1010.68
2023-02-01T02:49:19.980Z,1010.71
2023-02-01T02:50:00.479Z,1010.73
2023-02-01T02:50:40.941Z,1010.67
2023-02-01T02:51:21.420Z,1010.68
2023-02-01T02:52:01.948Z,1010.66
2023-02-01T02:52:42.425Z,1010.72
2023-02-01T02:54:03.416Z,1010.69
2023-02-01T02:54:43.925Z,1010.61
2023-02-01T02:55:24.409Z,1010.67
2023-02-01T02:56:04.946Z,1010.57
2023-02-01T02:56:45.437Z,1010.59
2023-02-01T02:57:25.982Z,1010.53
2023-02-01T02:58:06.448Z,1010.47
2023-02-01T02:58:46.935Z,1010.51
2023-02-01T02:59:27.417Z,1010.52
2023-02-01T03:00:07.880Z,1010.42
2023-02-01T03:00:48.416Z,1010.45
2023-02-01T03:01:28.871Z,1010.44
2023-02-01T03:02:09.378Z,1010.38
2023-02-01T03:02:50.058Z,1010.37
2023-02-01T03:03:30.567Z,1010.34
2023-02-01T03:04:51.545Z,1010.36
2023-02-01T03:05:32.048Z,1010.44
2023-02-01T03:06:12.585Z,1010.43
2023-02-01T03:06:53.064Z,1010.43
2023-02-01T03:07:33.546Z,1010.47
2023-02-01T03:08:14.089Z,1010.46
2023-02-01T03:08:54.595Z,1010.43
2023-02-01T03:09:35.091Z,1010.36
2023-02-01T03:10:15.551Z,1010.4
2023-02-01T03:10:56.044Z,1010.49
2023-02-01T03:11:36.563Z,1010.54
2023-02-01T03:12:17.044Z,1010.56
2023-02-01T03:12:57.543Z,1010.52
2023-02-01T03:13:38.034Z,1010.41
2023-02-01T03:14:18.500Z,1010.49
2023-02-01T03:14:58.975Z,1010.49
2023-02-01T03:15:39.437Z,1010.52
2023-02-01T03:16:19.988Z,1010.41
2023-02-01T03:17:00.458Z,1010.43
2023-02-01T03:17:41.606Z,1010.41
2023-02-01T03:18:21.470Z,1010.38
2023-02-01T03:19:02.005Z,1010.4
2023-02-01T03:19:42.462Z,1010.41
2023-02-01T03:22:56.098Z,1010.42
2023-02-01T03:23:36.555Z,1010.51
2023-02-01T03:24:17.033Z,1010.48
2023-02-01T03:24:57.543Z,1010.52
2023-02-01T03:25:38.059Z,1010.52
2023-02-01T03:26:18.630Z,1010.45
2023-02-01T03:26:59.100Z,1010.47
2023-02-01T03:27:39.592Z,1010.48
2023-02-01T03:28:20.085Z,1010.58
2023-02-01T03:29:00.569Z,1010.55
2023-02-01T03:29:41.073Z,1010.56
2023-02-01T03:30:21.974Z,1010.55
2023-02-01T03:31:02.098Z,1010.51
2023-02-01T03:31:42.584Z,1010.52
2023-02-01T03:32:23.069Z,1010.49
2023-02-01T03:33:03.581Z,1010.49
2023-02-01T03:33:44.082Z,1010.53
2023-02-01T03:34:24.594Z,1010.53
2023-02-01T03:35:05.106Z,1010.52
2023-02-01T03:35:45.637Z,1010.45
2023-02-01T03:36:26.156Z,1010.55
2023-02-01T03:37:06.619Z,1010.53
2023-02-01T03:37:47.134Z,1010.46
2023-02-01T03:38:27.659Z,1010.56
2023-02-01T03:39:08.181Z,1010.4
2023-02-01T03:39:48.709Z,1010.46
2023-02-01T03:40:29.222Z,1010.43
2023-02-01T03:41:09.699Z,1010.42
2023-02-01T03:41:50.282Z,1010.39
2023-02-01T03:42:30.833Z,1010.46
2023-02-01T03:43:11.271Z,1010.55
2023-02-01T03:43:51.769Z,1010.56
2023-02-01T03:44:32.326Z,1010.61
2023-02-01T03:45:12.809Z,1010.58
2023-02-01T03:45:53.360Z,1010.55
2023-02-01T03:46:33.833Z,1010.58
2023-02-01T03:47:14.324Z,1010.47
2023-02-01T03:47:54.817Z,1010.57
2023-02-01T03:48:35.339Z,1010.49
2023-02-01T03:49:56.384Z,1010.48
2023-02-01T03:50:36.875Z,1010.43
2023-02-01T03:51:17.424Z,1010.41
2023-02-01T03:51:57.926Z,1010.4
2023-02-01T03:52:38.429Z,1010.44
2023-02-01T03:53:18.912Z,1010.38
2023-02-01T03:53:59.414Z,1010.4
2023-02-01T03:54:39.901Z,1010.37
2023-02-01T03:55:20.445Z,1010.38
2023-02-01T03:56:01.012Z,1010.33
2023-02-01T03:56:41.493Z,1010.31
2023-02-01T03:57:22.009Z,1010.3
2023-02-01T03:58:02.511Z,1010.24
2023-02-01T03:58:42.989Z,1010.29
2023-02-01T04:00:03.981Z,1010.32
2023-02-01T04:00:44.509Z,1010.32
2023-02-01T04:01:25.068Z,1010.31
2023-02-01T04:02:05.595Z,1010.26
2023-02-01T04:02:46.145Z,1010.35
2023-02-01T04:03:26.587Z,1010.35
2023-02-01T04:04:07.103Z,1010.29
2023-02-01T04:04:47.583Z,1010.38
2023-02-01T04:05:28.125Z,1010.37
2023-02-01T04:06:08.661Z,1010.39
2023-02-01T04:06:49.079Z,1010.34
2023-02-01T04:07:29.599Z,1010.39
2023-02-01T04:08:10.091Z,1010.41
2023-02-01T04:08:50.612Z,1010.44
2023-02-01T04:09:31.138Z,1010.42
2023-02-01T04:10:11.626Z,1010.41
2023-02-01T04:10:52.139Z,1010.44
2023-02-01T04:11:32.632Z,1010.45
2023-02-01T04:12:13.183Z,1010.43
2023-02-01T04:12:53.667Z,1010.45
2023-02-01T04:13:34.151Z,1010.35
2023-02-01T04:14:14.637Z,1010.4
2023-02-01T04:14:55.185Z,1010.43
2023-02-01T04:15:35.634Z,1010.45
2023-02-01T04:16:16.174Z,1010.51
2023-02-01T04:16:56.715Z,1010.48
2023-02-01T04:20:25.885Z,1010.54
2023-02-01T04:21:07.598Z,1010.55
2023-02-01T04:21:48.055Z,1010.58
2023-02-01T04:22:28.520Z,1010.54
2023-02-01T04:23:09.029Z,1010.61
2023-02-01T04:23:49.507Z,1010.59
2023-02-01T04:24:30.007Z,1010.57
2023-02-01T04:25:10.532Z,1010.56
2023-02-01T04:25:50.944Z,1010.54
2023-02-01T04:26:31.540Z,1010.47
2023-02-01T04:27:11.920Z,1010.55
2023-02-01T04:27:52.419Z,1010.5
2023-02-01T04:28:32.954Z,1010.47
2023-02-01T04:29:13.545Z,1010.43
2023-02-01T04:29:53.937Z,1010.56
2023-02-01T04:30:34.546Z,1010.44
2023-02-01T04:31:14.980Z,1010.52
2023-02-01T04:31:55.425Z,1010.48
2023-02-01T04:32:35.974Z,1010.5
2023-02-01T04:33:16.408Z,1010.52
2023-02-01T04:33:56.907Z,1010.54
2023-02-01T04:34:37.373Z,1010.48
2023-02-01T04:35:17.882Z,1010.58
2023-02-01T04:35:58.385Z,1010.48
2023-02-01T04:36:38.878Z,1010.46
2023-02-01T04:37:19.369Z,1010.59
2023-02-01T04:37:59.912Z,1010.55
2023-02-01T04:38:40.457Z,1010.58
2023-02-01T04:39:20.918Z,1010.51
2023-02-01T04:40:01.406Z,1010.51
2023-02-01T04:40:41.881Z,1010.46
2023-02-01T04:41:22.367Z,1010.45
2023-02-01T04:42:02.915Z,1010.43
2023-02-01T04:42:43.464Z,1010.41
2023-02-01T04:43:23.915Z,1010.52
2023-02-01T04:44:04.427Z,1010.43
2023-02-01T04:44:44.929Z,1010.43
2023-02-01T04:45:25.408Z,1010.45
2023-02-01T04:46:05.960Z,1010.44
2023-02-01T04:46:46.403Z,1010.42
2023-02-01T04:47:26.906Z,1010.4
2023-02-01T04:48:07.398Z,1010.44
2023-02-01T04:48:47.872Z,1010.43
2023-02-01T04:49:28.355Z,1010.36
2023-02-01T04:50:08.872Z,1010.43
2023-02-01T04:50:49.325Z,1010.38
2023-02-01T04:51:29.824Z,1010.44
2023-02-01T04:52:50.799Z,1010.36
2023-02-01T04:53:31.268Z,1010.38
2023-02-01T04:54:11.752Z,1010.35
2023-02-01T04:55:32.718Z,1010.31
2023-02-01T04:56:13.232Z,1010.26
2023-02-01T04:56:53.701Z,1010.23
2023-02-01T04:57:34.194Z,1010.26
2023-02-01T04:58:15.303Z,1010.21
2023-02-01T04:58:55.811Z,1010.16
2023-02-01T04:59:36.295Z,1010.23
2023-02-01T05:00:16.807Z,1010.18
2023-02-01T05:00:57.293Z,1010.26
2023-02-01T05:01:37.870Z,1010.12
2023-02-01T05:02:18.287Z,1010.1
2023-02-01T05:03:39.256Z,1010.03
2023-02-01T05:04:20.827Z,1010.11
2023-02-01T05:05:01.409Z,1010.08
2023-02-01T05:06:22.279Z,1010.11
2023-02-01T05:07:02.800Z,1010.13
2023-02-01T05:07:43.331Z,1010.06
2023-02-01T05:08:23.802Z,1010.08
2023-02-01T05:09:04.328Z,1010.08
2023-02-01T05:09:44.760Z,1010.04
2023-02-01T05:10:25.513Z,1009.97
2023-02-01T05:11:05.756Z,1009.97
2023-02-01T05:11:46.237Z,1009.97
2023-02-01T05:12:27.579Z,1009.94
2023-02-01T05:13:07.247Z,1010.01
2023-02-01T05:13:47.753Z,1009.99
2023-02-01T05:14:28.251Z,1009.94
2023-02-01T05:15:08.760Z,1009.92
2023-02-01T05:15:49.228Z,1009.99
2023-02-01T05:16:29.743Z,1010.06
2023-02-01T05:17:50.684Z,1009.96
2023-02-01T05:18:31.157Z,1010.14
2023-02-01T05:19:11.711Z,1010.06
2023-02-01T05:20:32.679Z,1009.97
2023-02-01T05:21:13.207Z,1010.04
2023-02-01T05:21:53.692Z,1010.06
2023-02-01T05:22:34.207Z,1010.16
2023-02-01T05:23:14.699Z,1010.1
2023-02-01T05:23:55.193Z,1010.16
2023-02-01T05:24:35.691Z,1010.12
2023-02-01T05:25:16.223Z,1010.17
2023-02-01T05:25:56.745Z,1010.22
2023-02-01T05:26:37.262Z,1010.22
2023-02-01T05:27:17.698Z,1010.21
2023-02-01T05:27:58.196Z,1010.22
2023-02-01T05:28:38.740Z,1010.22
2023-02-01T05:29:19.301Z,1010.14
2023-02-01T05:29:59.812Z,1010.28
2023-02-01T05:30:42.202Z,1010.13
2023-02-01T05:31:20.920Z,1010.32
2023-02-01T05:32:15.368Z,1010.27
2023-02-01T05:32:41.900Z,1010.31
2023-02-01T05:33:22.300Z,1010.28
2023-02-01T05:34:02.799Z,1010.24
2023-02-01T05:34:43.289Z,1010.23
2023-02-01T05:35:23.831Z,1010.24
2023-02-01T05:36:06.601Z,1010.26
2023-02-01T05:36:44.760Z,1010.14
2023-02-01T05:37:25.315Z,1010.18
2023-02-01T05:38:05.837Z,1010.13
2023-02-01T05:38:46.364Z,1010.1
2023-02-01T05:39:26.872Z,1010.25
2023-02-01T05:40:07.404Z,1010.16
2023-02-01T05:40:47.919Z,1010.26
2023-02-01T05:41:28.470Z,1010.28
2023-02-01T05:42:09.051Z,1010.27
2023-02-01T05:42:49.605Z,1010.12
2023-02-01T05:43:30.079Z,1010.31
2023-02-01T05:44:10.568Z,1010.23
2023-02-01T05:44:51.110Z,1010.29
2023-02-01T05:45:31.543Z,1010.39
2023-02-01T05:46:12.070Z,1010.25
2023-02-01T05:46:52.569Z,1010.27
2023-02-01T05:47:33.123Z,1010.26
2023-02-01T05:48:13.680Z,1010.29
2023-02-01T05:48:54.222Z,1010.36
2023-02-01T05:49:34.728Z,1010.3
2023-02-01T05:50:15.245Z,1010.38
2023-02-01T05:50:55.816Z,1010.3
2023-02-01T05:51:36.254Z,1010.31
2023-02-01T05:52:16.824Z,1010.27
2023-02-01T05:52:57.336Z,1010.23
2023-02-01T05:53:37.861Z,1010.11
2023-02-01T06:31:26.396Z,1010.2
2023-02-01T06:32:07.128Z,1010.28
2023-02-01T06:32:47.376Z,1010.21
2023-02-01T06:33:27.891Z,1010.19
2023-02-01T06:34:08.470Z,1010.24
2023-02-01T06:34:48.996Z,1010.29
2023-02-01T06:35:29.481Z,1010.26
2023-02-01T06:36:10.040Z,1010.3
2023-02-01T06:36:50.576Z,1010.32
2023-02-01T06:37:31.119Z,1010.25
2023-02-01T06:38:11.618Z,1010.32
2023-02-01T06:38:52.126Z,1010.32
2023-02-01T06:39:32.611Z,1010.4
2023-02-01T06:40:13.703Z,1010.32
2023-02-01T06:40:54.233Z,1010.29
2023-02-01T06:41:34.690Z,1010.22
2023-02-01T06:42:15.231Z,1010.38
2023-02-01T06:43:36.281Z,1010.4
2023-02-01T06:44:16.829Z,1010.36
2023-02-01T06:44:58.129Z,1010.48
2023-02-01T06:45:39.570Z,1010.43
2023-02-01T06:46:20.265Z,1010.41
2023-02-01T06:47:00.764Z,1010.42
2023-02-01T06:47:41.131Z,1010.39
2023-02-01T06:48:21.639Z,1010.42
2023-02-01T06:49:02.213Z,1010.39
2023-02-01T06:49:43.586Z,1010.35
2023-02-01T06:51:04.637Z,1010.4
2023-02-01T06:51:45.342Z,1010.33
2023-02-01T06:52:25.817Z,1010.45
2023-02-01T06:53:06.337Z,1010.45
2023-02-01T06:55:45.556Z,1010.47
2023-02-01T06:56:26.045Z,1010.35
2023-02-01T06:57:07.813Z,1010.43
2023-02-01T06:57:48.409Z,1010.45
2023-02-01T06:58:28.900Z,1010.33
2023-02-01T06:59:09.557Z,1010.47
2023-02-01T06:59:50.070Z,1010.56
2023-02-01T07:00:30.696Z,1010.65
2023-02-01T07:01:11.187Z,1010.53
2023-02-01T07:01:51.701Z,1010.44
2023-02-01T07:02:32.126Z,1010.61
2023-02-01T07:03:12.745Z,1010.63
2023-02-01T07:03:53.313Z,1010.55
2023-02-01T07:04:33.802Z,1010.52
2023-02-01T07:05:14.350Z,1010.56
2023-02-01T07:05:54.914Z,1010.41
2023-02-01T07:06:35.447Z,1010.38
2023-02-01T07:07:16.131Z,1010.59
2023-02-01T07:08:37.216Z,1010.4
2023-02-01T07:11:16.902Z,1010.54
2023-02-01T07:11:57.314Z,1010.57
2023-02-01T07:12:37.950Z,1010.59
2023-02-01T07:13:18.435Z,1010.49
2023-02-01T07:13:59.094Z,1010.51
2023-02-01T07:14:40.623Z,1010.54
2023-02-01T07:16:01.965Z,1010.53
2023-02-01T07:16:42.356Z,1010.6
2023-02-01T07:17:22.921Z,1010.59
2023-02-01T07:18:03.462Z,1010.64
2023-02-01T07:18:43.947Z,1010.54
2023-02-01T07:19:24.459Z,1010.6
2023-02-01T07:20:04.935Z,1010.46
2023-02-01T07:20:45.463Z,1010.66
2023-02-01T07:21:26.328Z,1010.65
2023-02-01T07:22:07.511Z,1010.33
2023-02-01T07:22:48.044Z,1010.61
2023-02-01T07:23:28.583Z,1010.44
2023-02-01T07:24:09.335Z,1010.66
2023-02-01T07:24:49.733Z,1010.7
2023-02-01T07:26:10.870Z,1010.69
2023-02-01T07:26:51.545Z,1010.57
2023-02-01T07:27:31.908Z,1010.55
2023-02-01T07:28:12.525Z,1010.71
2023-02-01T07:28:53.065Z,1010.79
2023-02-01T07:29:33.822Z,1010.73
2023-02-01T07:30:14.601Z,1010.63
2023-02-01T07:31:02.111Z,1010.77
2023-02-01T07:31:42.623Z,1010.81
2023-02-01T07:32:29.884Z,1010.7
2023-02-01T07:33:10.381Z,1010.73
2023-02-01T07:33:50.779Z,1010.7
2023-02-01T07:34:31.356Z,1010.6
2023-02-01T07:35:12.058Z,1010.64
2023-02-01T07:35:52.804Z,1010.61
2023-02-01T07:36:33.492Z,1010.59
2023-02-01T07:37:14.119Z,1010.68
2023-02-01T07:37:55.251Z,1010.68
2023-02-01T07:39:53.292Z,1010.62
2023-02-01T07:40:34.300Z,1010.66
2023-02-01T07:41:16.256Z,1010.68
2023-02-01T07:41:57.999Z,1010.67
2023-02-01T07:42:39.793Z,1010.66
2023-02-01T07:43:21.968Z,1010.86
2023-02-01T07:46:20.707Z,1010.7
2023-02-01T07:47:01.545Z,1010.75
2023-02-01T07:47:41.907Z,1010.68
2023-02-01T07:48:22.643Z,1010.7
2023-02-01T07:49:03.204Z,1010.74
2023-02-01T07:49:43.754Z,1010.74
2023-02-01T07:50:24.570Z,1010.68
2023-02-01T07:51:04.916Z,1010.55
2023-02-01T07:54:18.867Z,1010.74
2023-02-01T07:54:59.553Z,1010.7
2023-02-01T07:55:40.165Z,1010.7
2023-02-01T07:56:20.752Z,1010.79
2023-02-01T07:57:01.506Z,1010.59
2023-02-01T07:57:42.156Z,1010.59
2023-02-01T07:58:23.641Z,1010.76
2023-02-01T07:59:04.190Z,1010.78
2023-02-01T07:59:45.955Z,1010.45
2023-02-01T08:00:26.510Z,1010.61
2023-02-01T08:01:07.089Z,1010.8
2023-02-01T08:01:47.625Z,1010.78
2023-02-01T08:02:28.232Z,1010.84
2023-02-01T08:03:08.826Z,1010.74
2023-02-01T08:03:50.345Z,1010.82
2023-02-01T08:04:30.956Z,1010.79
2023-02-01T08:05:14.487Z,1010.86
2023-02-01T08:05:55.105Z,1010.88
2023-02-01T08:09:25.129Z,1010.89
2023-02-01T08:10:06.814Z,1010.87
2023-02-01T08:10:47.363Z,1010.9
2023-02-01T08:11:27.904Z,1010.9
2023-02-01T08:12:09.429Z,1010.93
2023-02-01T08:12:49.969Z,1010.85
2023-02-01T08:13:30.508Z,1010.68
2023-02-01T08:14:12.038Z,1010.81
2023-02-01T08:14:52.597Z,1010.9
2023-02-01T08:15:33.142Z,1010.91
2023-02-01T08:16:13.858Z,1010.95
2023-02-01T08:16:55.279Z,1010.93
2023-02-01T08:17:35.962Z,1010.9
2023-02-01T08:19:48.842Z,1010.88
2023-02-01T08:20:29.265Z,1010.86
2023-02-01T08:21:09.766Z,1010.81
2023-02-01T08:21:50.330Z,1010.86
2023-02-01T08:22:30.852Z,1010.85
2023-02-01T08:23:11.390Z,1010.82
2023-02-01T08:23:51.933Z,1010.84
2023-02-01T08:24:32.483Z,1010.87
2023-02-01T08:25:13.029Z,1010.82
2023-02-01T08:25:54.355Z,1010.73
2023-02-01T08:26:35.839Z,1010.87
2023-02-01T08:27:16.341Z,1010.91
2023-02-01T08:27:56.874Z,1010.88
2023-02-01T08:28:38.012Z,1010.96
2023-02-01T08:29:17.984Z,1010.96
2023-02-01T08:29:58.542Z,1010.95
2023-02-01T08:30:39.307Z,1010.96
2023-02-01T08:31:19.963Z,1010.97
2023-02-01T08:32:00.619Z,1011.03
2023-02-01T08:32:41.559Z,1011
2023-02-01T08:34:02.226Z,1011.07
2023-02-01T08:34:45.587Z,1010.97
2023-02-01T08:37:44.469Z,1011
2023-02-01T08:38:25.098Z,1011.2
2023-02-01T08:39:05.844Z,1011.15
2023-02-01T08:39:47.776Z,1010.94
2023-02-01T08:40:27.291Z,1011.11
2023-02-01T08:41:08.808Z,1011.06
2023-02-01T08:41:50.046Z,1011.16
2023-02-01T08:42:31.538Z,1011.21
2023-02-01T08:43:53.986Z,1011.23
2023-02-01T08:44:34.570Z,1011.26
2023-02-01T08:45:15.017Z,1011.23
2023-02-01T08:45:56.912Z,1011.32
2023-02-01T08:46:36.376Z,1011.15
2023-02-01T08:47:17.070Z,1011.37
2023-02-01T08:48:00.372Z,1011.25
2023-02-01T08:48:40.909Z,1011.18
2023-02-01T08:49:22.293Z,1011.29
2023-02-01T08:50:03.333Z,1011.33
2023-02-01T08:51:24.712Z,1011.23
2023-02-01T08:52:10.614Z,1011.43
2023-02-01T08:52:46.875Z,1011.34
2023-02-01T08:53:27.344Z,1011.37
2023-02-01T08:54:07.884Z,1011.26
2023-02-01T08:54:48.606Z,1011.43
2023-02-01T08:55:29.250Z,1011.41
2023-02-01T08:56:10.377Z,1011.43
2023-02-01T08:56:50.873Z,1011.3
2023-02-01T08:57:31.401Z,1011.35
2023-02-01T08:58:11.969Z,1011.45
2023-02-01T08:58:53.807Z,1011.47
2023-02-01T08:59:34.486Z,1011.41
2023-02-01T09:00:15.002Z,1011.49
2023-02-01T09:00:56.121Z,1011.37
2023-02-01T09:01:36.626Z,1011.36
2023-02-01T09:02:17.320Z,1011.5
2023-02-01T09:02:58.035Z,1011.35
2023-02-01T09:03:38.795Z,1011.5
2023-02-01T09:04:19.286Z,1011.5
2023-02-01T09:04:59.691Z,1011.35
2023-02-01T09:05:48.948Z,1011.5
2023-02-01T09:06:21.221Z,1011.45
2023-02-01T09:07:01.751Z,1011.5
2023-02-01T09:07:42.508Z,1011.42
2023-02-01T09:08:23.642Z,1011.52
2023-02-01T09:09:04.129Z,1011.46
2023-02-01T09:09:44.752Z,1011.46
2023-02-01T09:10:34.536Z,1011.43
2023-02-01T09:13:06.542Z,1011.38
2023-02-01T09:13:47.229Z,1011.42
2023-02-01T09:14:27.774Z,1011.28
2023-02-01T09:15:08.463Z,1011.32
2023-02-01T09:15:49.540Z,1011.45
2023-02-01T09:18:19.508Z,1011.43
2023-02-01T09:19:24.226Z,1011.36
2023-02-01T09:19:43.110Z,1011.23
2023-02-01T09:20:23.382Z,1011.4
2023-02-01T09:21:04.411Z,1011.17
2023-02-01T09:21:45.462Z,1011.41
2023-02-01T09:22:26.616Z,1011.3
2023-02-01T09:23:07.712Z,1011.31
2023-02-01T09:23:48.736Z,1011.33
2023-02-01T09:24:29.834Z,1011.24
2023-02-01T09:25:10.927Z,1011.29
2023-02-01T09:25:51.936Z,1011.26
2023-02-01T09:26:33.333Z,1011.17
2023-02-01T09:27:14.247Z,1011.14
2023-02-01T09:27:55.126Z,1010.93
2023-02-01T09:28:36.300Z,1010.98
2023-02-01T09:29:17.397Z,1011.39
2023-02-01T09:29:58.424Z,1011.43
2023-02-01T09:30:39.543Z,1011.26
2023-02-01T09:31:20.696Z,1011.42
2023-02-01T09:32:04.211Z,1011.34
2023-02-01T09:35:16.441Z,1011.34
2023-02-01T09:35:57.595Z,1011.16
2023-02-01T09:36:38.826Z,1011.15
2023-02-01T09:37:20.376Z,1011.22
2023-02-01T09:38:01.592Z,1011.24
2023-02-01T09:38:52.260Z,1011.32
2023-02-01T09:39:23.550Z,1011.29
2023-02-01T09:40:04.797Z,1011.2
2023-02-01T09:40:46.038Z,1011.26
2023-02-01T09:41:27.047Z,1011.28
2023-02-01T09:42:09.031Z,1011.38
2023-02-01T09:45:24.311Z,1011.32
2023-02-01T09:47:19.307Z,1011.26
2023-02-01T09:47:59.527Z,1011.19
2023-02-01T09:48:40.042Z,1011.21
2023-02-01T09:49:20.601Z,1011.2
2023-02-01T09:50:02.121Z,1011.09
2023-02-01T09:50:43.020Z,1011.25
2023-02-01T09:51:23.546Z,1011.19
2023-02-01T09:52:04.087Z,1011.29
2023-02-01T09:52:44.783Z,1011.25
2023-02-01T09:53:25.421Z,1011.33
2023-02-01T09:54:05.918Z,1011.17
2023-02-01T09:54:46.524Z,1011.23
2023-02-01T09:55:27.011Z,1011.37
2023-02-01T09:56:07.559Z,1011.27
2023-02-01T09:56:48.084Z,1011.23
2023-02-01T09:57:28.608Z,1011.24
2023-02-01T09:58:09.225Z,1011.27
2023-02-01T09:58:49.961Z,1011.14
2023-02-01T09:59:30.464Z,1011.22
2023-02-01T10:00:10.975Z,1011.19
2023-02-01T10:00:51.528Z,1011.26
2023-02-01T10:01:33.090Z,1011.21
2023-02-01T10:02:13.579Z,1011.2
2023-02-01T10:02:54.210Z,1011.25
2023-02-01T10:03:34.769Z,1011.16
2023-02-01T10:04:15.296Z,1011.21
2023-02-01T10:04:55.996Z,1011.29
2023-02-01T10:05:36.490Z,1011.3
2023-02-01T10:06:18.484Z,1011.22
2023-02-01T10:06:58.497Z,1011.19
2023-02-01T10:07:39.091Z,1011.22
2023-02-01T10:08:19.555Z,1011.19
2023-02-01T10:09:00.106Z,1011.23
2023-02-01T10:09:41.291Z,1011.08
2023-02-01T10:10:22.367Z,1011.07
2023-02-01T10:11:02.539Z,1011.21
2023-02-01T10:11:43.201Z,1011.03